sensor_id;sensor_type;location;lat;lon;timestamp;P1;durP1;ratioP1;P2;durP2;ratioP2
36651;SDS011;53334;51.976;20.144;2023-12-20T00:01:37;8.88;;;6.43;;
36651;SDS011;53334;51.976;20.144;2023-12-20T00:04:11;10.27;;;7.10;;
36651;SDS011;53334;51.976;20.144;2023-12-20T00:06:45;11.45;;;7.15;;
36651;SDS011;53334;51.976;20.144;2023-12-20T00:09:19;9.38;;;6.47;;
36651;SDS011;53334;51.976;20.144;2023-12-20T00:11:52;9.85;;;6.38;;
36651;SDS011;53334;51.976;20.144;2023-12-20T00:14:25;8.68;;;6.57;;
36651;SDS011;53334;51.976;20.144;2023-12-20T00:16:58;10.05;;;7.28;;
36651;SDS011;53334;51.976;20.144;2023-12-20T00:19:31;9.32;;;6.00;;
36651;SDS011;53334;51.976;20.144;2023-12-20T00:22:06;9.23;;;6.47;;
36651;SDS011;53334;51.976;20.144;2023-12-20T00:24:39;9.15;;;7.15;;
36651;SDS011;53334;51.976;20.144;2023-12-20T00:27:12;10.48;;;6.82;;
36651;SDS011;53334;51.976;20.144;2023-12-20T00:29:46;10.38;;;6.57;;
36651;SDS011;53334;51.976;20.144;2023-12-20T00:32:21;8.93;;;7.00;;
36651;SDS011;53334;51.976;20.144;2023-12-20T00:34:54;10.15;;;6.65;;
36651;SDS011;53334;51.976;20.144;2023-12-20T00:37:29;9.68;;;6.78;;
36651;SDS011;53334;51.976;20.144;2023-12-20T00:40:02;8.40;;;6.38;;
36651;SDS011;53334;51.976;20.144;2023-12-20T00:42:36;9.95;;;6.53;;
36651;SDS011;53334;51.976;20.144;2023-12-20T00:45:10;8.13;;;6.22;;
36651;SDS011;53334;51.976;20.144;2023-12-20T00:47:43;9.60;;;6.70;;
36651;SDS011;53334;51.976;20.144;2023-12-20T00:50:17;8.55;;;6.45;;
36651;SDS011;53334;51.976;20.144;2023-12-20T00:52:52;9.82;;;6.57;;
36651;SDS011;53334;51.976;20.144;2023-12-20T00:55:26;10.73;;;7.53;;
36651;SDS011;53334;51.976;20.144;2023-12-20T00:57:59;11.48;;;7.90;;
36651;SDS011;53334;51.976;20.144;2023-12-20T01:00:32;14.95;;;8.73;;
36651;SDS011;53334;51.976;20.144;2023-12-20T01:03:06;13.23;;;7.78;;
36651;SDS011;53334;51.976;20.144;2023-12-20T01:05:39;12.98;;;8.07;;
36651;SDS011;53334;51.976;20.144;2023-12-20T01:08:14;13.57;;;7.07;;
36651;SDS011;53334;51.976;20.144;2023-12-20T01:10:47;10.05;;;7.38;;
36651;SDS011;53334;51.976;20.144;2023-12-20T01:13:20;14.60;;;7.97;;
36651;SDS011;53334;51.976;20.144;2023-12-20T01:15:53;14.13;;;7.18;;
36651;SDS011;53334;51.976;20.144;2023-12-20T01:18:27;15.15;;;7.20;;
36651;SDS011;53334;51.976;20.144;2023-12-20T01:21:01;10.77;;;7.45;;
36651;SDS011;53334;51.976;20.144;2023-12-20T01:23:36;12.65;;;7.45;;
36651;SDS011;53334;51.976;20.144;2023-12-20T01:26:09;8.65;;;6.28;;
36651;SDS011;53334;51.976;20.144;2023-12-20T01:28:43;11.30;;;6.88;;
36651;SDS011;53334;51.976;20.144;2023-12-20T01:31:16;10.48;;;7.05;;
36651;SDS011;53334;51.976;20.144;2023-12-20T01:33:50;9.82;;;7.03;;
36651;SDS011;53334;51.976;20.144;2023-12-20T01:36:23;10.52;;;6.80;;
36651;SDS011;53334;51.976;20.144;2023-12-20T01:38:58;9.95;;;6.80;;
36651;SDS011;53334;51.976;20.144;2023-12-20T01:41:31;9.98;;;7.00;;
36651;SDS011;53334;51.976;20.144;2023-12-20T01:44:04;11.23;;;6.88;;
36651;SDS011;53334;51.976;20.144;2023-12-20T01:46:37;11.32;;;7.13;;
36651;SDS011;53334;51.976;20.144;2023-12-20T01:49:11;9.35;;;6.65;;
36651;SDS011;53334;51.976;20.144;2023-12-20T01:51:45;8.88;;;6.63;;
36651;SDS011;53334;51.976;20.144;2023-12-20T01:54:20;9.20;;;6.40;;
36651;SDS011;53334;51.976;20.144;2023-12-20T01:56:54;8.02;;;6.38;;
36651;SDS011;53334;51.976;20.144;2023-12-20T01:59:27;13.57;;;6.70;;
36651;SDS011;53334;51.976;20.144;2023-12-20T02:02:02;7.88;;;5.93;;
36651;SDS011;53334;51.976;20.144;2023-12-20T02:04:36;9.90;;;5.97;;
36651;SDS011;53334;51.976;20.144;2023-12-20T02:07:09;7.47;;;5.78;;
36651;SDS011;53334;51.976;20.144;2023-12-20T02:09:45;8.05;;;5.82;;
36651;SDS011;53334;51.976;20.144;2023-12-20T02:12:19;11.63;;;5.80;;
36651;SDS011;53334;51.976;20.144;2023-12-20T02:14:52;8.57;;;6.30;;
36651;SDS011;53334;51.976;20.144;2023-12-20T02:17:26;9.65;;;5.82;;
36651;SDS011;53334;51.976;20.144;2023-12-20T02:20:00;7.88;;;5.68;;
36651;SDS011;53334;51.976;20.144;2023-12-20T02:22:35;9.45;;;5.40;;
36651;SDS011;53334;51.976;20.144;2023-12-20T02:25:09;9.88;;;5.82;;
36651;SDS011;53334;51.976;20.144;2023-12-20T02:27:42;9.23;;;5.88;;
36651;SDS011;53334;51.976;20.144;2023-12-20T02:30:16;9.45;;;5.47;;
36651;SDS011;53334;51.976;20.144;2023-12-20T02:32:49;7.35;;;5.28;;
36651;SDS011;53334;51.976;20.144;2023-12-20T02:35:23;7.47;;;5.60;;
36651;SDS011;53334;51.976;20.144;2023-12-20T02:37:58;8.00;;;6.10;;
36651;SDS011;53334;51.976;20.144;2023-12-20T02:40:31;7.25;;;5.63;;
36651;SDS011;53334;51.976;20.144;2023-12-20T02:43:04;7.10;;;4.95;;
36651;SDS011;53334;51.976;20.144;2023-12-20T02:45:38;7.05;;;5.55;;
36651;SDS011;53334;51.976;20.144;2023-12-20T02:48:11;9.65;;;5.18;;
36651;SDS011;53334;51.976;20.144;2023-12-20T02:50:45;7.90;;;5.15;;
36651;SDS011;53334;51.976;20.144;2023-12-20T02:53:20;8.30;;;5.65;;
36651;SDS011;53334;51.976;20.144;2023-12-20T02:55:53;7.30;;;5.32;;
36651;SDS011;53334;51.976;20.144;2023-12-20T02:58:27;6.63;;;5.35;;
36651;SDS011;53334;51.976;20.144;2023-12-20T03:01:00;7.13;;;5.70;;
36651;SDS011;53334;51.976;20.144;2023-12-20T03:03:33;6.25;;;5.38;;
36651;SDS011;53334;51.976;20.144;2023-12-20T03:06:06;9.07;;;5.22;;
36651;SDS011;53334;51.976;20.144;2023-12-20T03:08:41;6.82;;;4.95;;
36651;SDS011;53334;51.976;20.144;2023-12-20T03:11:14;6.70;;;4.82;;
36651;SDS011;53334;51.976;20.144;2023-12-20T03:13:48;6.28;;;4.65;;
36651;SDS011;53334;51.976;20.144;2023-12-20T03:16:21;7.38;;;4.95;;
36651;SDS011;53334;51.976;20.144;2023-12-20T03:21:28;5.30;;;4.57;;
36651;SDS011;53334;51.976;20.144;2023-12-20T03:24:02;5.68;;;4.50;;
36651;SDS011;53334;51.976;20.144;2023-12-20T03:26:36;6.75;;;4.90;;
36651;SDS011;53334;51.976;20.144;2023-12-20T03:29:09;8.27;;;4.57;;
36651;SDS011;53334;51.976;20.144;2023-12-20T03:31:42;5.93;;;4.40;;
36651;SDS011;53334;51.976;20.144;2023-12-20T03:34:15;6.32;;;4.88;;
36651;SDS011;53334;51.976;20.144;2023-12-20T03:36:49;7.28;;;4.90;;
36651;SDS011;53334;51.976;20.144;2023-12-20T03:39:24;4.30;;;3.80;;
36651;SDS011;53334;51.976;20.144;2023-12-20T03:41:57;6.15;;;4.32;;
36651;SDS011;53334;51.976;20.144;2023-12-20T03:44:30;6.80;;;4.30;;
36651;SDS011;53334;51.976;20.144;2023-12-20T03:47:03;4.93;;;4.07;;
36651;SDS011;53334;51.976;20.144;2023-12-20T03:49:36;7.63;;;4.32;;
36651;SDS011;53334;51.976;20.144;2023-12-20T03:52:10;5.95;;;4.93;;
36651;SDS011;53334;51.976;20.144;2023-12-20T03:54:45;4.15;;;3.33;;
36651;SDS011;53334;51.976;20.144;2023-12-20T03:57:18;4.93;;;4.18;;
36651;SDS011;53334;51.976;20.144;2023-12-20T03:59:51;5.57;;;5.00;;
36651;SDS011;53334;51.976;20.144;2023-12-20T04:02:24;6.18;;;4.25;;
36651;SDS011;53334;51.976;20.144;2023-12-20T04:04:57;6.35;;;4.43;;
36651;SDS011;53334;51.976;20.144;2023-12-20T04:07:31;5.88;;;4.57;;
36651;SDS011;53334;51.976;20.144;2023-12-20T04:10:06;6.15;;;4.60;;
36651;SDS011;53334;51.976;20.144;2023-12-20T04:12:40;7.10;;;4.68;;
36651;SDS011;53334;51.976;20.144;2023-12-20T04:15:13;5.05;;;4.47;;
36651;SDS011;53334;51.976;20.144;2023-12-20T04:17:46;5.68;;;3.85;;
36651;SDS011;53334;51.976;20.144;2023-12-20T04:20:20;5.25;;;3.85;;
36651;SDS011;53334;51.976;20.144;2023-12-20T04:22:54;5.20;;;4.40;;
36651;SDS011;53334;51.976;20.144;2023-12-20T04:25:28;6.63;;;4.60;;
36651;SDS011;53334;51.976;20.144;2023-12-20T04:28:01;5.78;;;4.25;;
36651;SDS011;53334;51.976;20.144;2023-12-20T04:30:35;5.10;;;4.00;;
36651;SDS011;53334;51.976;20.144;2023-12-20T04:33:08;4.95;;;4.45;;
36651;SDS011;53334;51.976;20.144;2023-12-20T04:35:41;9.68;;;3.97;;
36651;SDS011;53334;51.976;20.144;2023-12-20T04:38:17;5.68;;;4.10;;
36651;SDS011;53334;51.976;20.144;2023-12-20T04:40:51;5.05;;;3.97;;
36651;SDS011;53334;51.976;20.144;2023-12-20T04:43:24;5.70;;;4.25;;
36651;SDS011;53334;51.976;20.144;2023-12-20T04:45:58;8.05;;;4.28;;
36651;SDS011;53334;51.976;20.144;2023-12-20T04:48:31;4.78;;;3.75;;
36651;SDS011;53334;51.976;20.144;2023-12-20T04:51:04;6.18;;;4.35;;
36651;SDS011;53334;51.976;20.144;2023-12-20T04:53:38;4.65;;;3.63;;
36651;SDS011;53334;51.976;20.144;2023-12-20T04:56:12;5.05;;;3.72;;
36651;SDS011;53334;51.976;20.144;2023-12-20T04:58:45;4.50;;;3.78;;
36651;SDS011;53334;51.976;20.144;2023-12-20T05:01:20;7.55;;;4.25;;
36651;SDS011;53334;51.976;20.144;2023-12-20T05:03:53;7.90;;;4.00;;
36651;SDS011;53334;51.976;20.144;2023-12-20T05:06:26;3.55;;;3.08;;
36651;SDS011;53334;51.976;20.144;2023-12-20T05:08:59;5.35;;;3.55;;
36651;SDS011;53334;51.976;20.144;2023-12-20T05:11:34;7.03;;;3.42;;
36651;SDS011;53334;51.976;20.144;2023-12-20T05:14:07;15.25;;;3.67;;
36651;SDS011;53334;51.976;20.144;2023-12-20T05:19:14;6.82;;;3.90;;
36651;SDS011;53334;51.976;20.144;2023-12-20T05:21:47;10.13;;;4.47;;
36651;SDS011;53334;51.976;20.144;2023-12-20T05:24:21;11.90;;;4.07;;
36651;SDS011;53334;51.976;20.144;2023-12-20T05:26:55;9.25;;;4.15;;
36651;SDS011;53334;51.976;20.144;2023-12-20T05:29:29;6.00;;;3.28;;
36651;SDS011;53334;51.976;20.144;2023-12-20T05:32:02;7.25;;;3.35;;
36651;SDS011;53334;51.976;20.144;2023-12-20T05:34:36;7.32;;;3.60;;
36651;SDS011;53334;51.976;20.144;2023-12-20T05:37:09;4.93;;;3.53;;
36651;SDS011;53334;51.976;20.144;2023-12-20T05:39:43;4.00;;;3.13;;
36651;SDS011;53334;51.976;20.144;2023-12-20T05:42:17;9.05;;;3.30;;
36651;SDS011;53334;51.976;20.144;2023-12-20T05:44:50;7.32;;;3.60;;
36651;SDS011;53334;51.976;20.144;2023-12-20T05:47:26;3.47;;;2.95;;
36651;SDS011;53334;51.976;20.144;2023-12-20T05:49:59;6.18;;;3.60;;
36651;SDS011;53334;51.976;20.144;2023-12-20T05:52:33;4.55;;;3.75;;
36651;SDS011;53334;51.976;20.144;2023-12-20T05:55:06;5.53;;;3.42;;
36651;SDS011;53334;51.976;20.144;2023-12-20T05:57:41;4.55;;;3.08;;
36651;SDS011;53334;51.976;20.144;2023-12-20T06:00:15;4.88;;;3.47;;
36651;SDS011;53334;51.976;20.144;2023-12-20T06:02:49;3.75;;;3.30;;
36651;SDS011;53334;51.976;20.144;2023-12-20T06:05:22;6.70;;;3.63;;
36651;SDS011;53334;51.976;20.144;2023-12-20T06:07:56;9.70;;;3.28;;
36651;SDS011;53334;51.976;20.144;2023-12-20T06:10:32;4.38;;;3.15;;
36651;SDS011;53334;51.976;20.144;2023-12-20T06:13:07;4.30;;;3.10;;
36651;SDS011;53334;51.976;20.144;2023-12-20T06:15:41;5.50;;;3.70;;
36651;SDS011;53334;51.976;20.144;2023-12-20T06:18:14;6.28;;;3.42;;
36651;SDS011;53334;51.976;20.144;2023-12-20T06:20:48;8.80;;;3.65;;
36651;SDS011;53334;51.976;20.144;2023-12-20T06:23:21;6.35;;;3.28;;
36651;SDS011;53334;51.976;20.144;2023-12-20T06:25:54;2.88;;;2.63;;
36651;SDS011;53334;51.976;20.144;2023-12-20T06:28:29;5.70;;;3.78;;
36651;SDS011;53334;51.976;20.144;2023-12-20T06:31:02;7.22;;;3.38;;
36651;SDS011;53334;51.976;20.144;2023-12-20T06:33:36;7.55;;;3.50;;
36651;SDS011;53334;51.976;20.144;2023-12-20T06:36:10;9.55;;;3.35;;
36651;SDS011;53334;51.976;20.144;2023-12-20T06:38:45;12.55;;;3.03;;
36651;SDS011;53334;51.976;20.144;2023-12-20T06:41:18;3.70;;;2.78;;
36651;SDS011;53334;51.976;20.144;2023-12-20T06:43:53;4.20;;;3.45;;
36651;SDS011;53334;51.976;20.144;2023-12-20T06:46:26;16.17;;;3.45;;
36651;SDS011;53334;51.976;20.144;2023-12-20T06:48:59;8.75;;;3.67;;
36651;SDS011;53334;51.976;20.144;2023-12-20T06:51:33;10.18;;;3.38;;
36651;SDS011;53334;51.976;20.144;2023-12-20T06:54:06;5.95;;;3.33;;
36651;SDS011;53334;51.976;20.144;2023-12-20T06:56:39;9.85;;;3.00;;
36651;SDS011;53334;51.976;20.144;2023-12-20T06:59:14;6.32;;;3.72;;
36651;SDS011;53334;51.976;20.144;2023-12-20T07:01:47;5.97;;;3.33;;
36651;SDS011;53334;51.976;20.144;2023-12-20T07:04:21;6.80;;;2.70;;
36651;SDS011;53334;51.976;20.144;2023-12-20T07:06:55;5.15;;;3.05;;
36651;SDS011;53334;51.976;20.144;2023-12-20T07:09:31;5.25;;;3.30;;
36651;SDS011;53334;51.976;20.144;2023-12-20T07:12:05;6.13;;;3.58;;
36651;SDS011;53334;51.976;20.144;2023-12-20T07:14:40;8.10;;;4.20;;
36651;SDS011;53334;51.976;20.144;2023-12-20T07:17:13;4.05;;;3.55;;
36651;SDS011;53334;51.976;20.144;2023-12-20T07:22:20;4.93;;;3.38;;
36651;SDS011;53334;51.976;20.144;2023-12-20T07:24:53;4.72;;;3.40;;
36651;SDS011;53334;51.976;20.144;2023-12-20T07:27:27;4.22;;;2.92;;
36651;SDS011;53334;51.976;20.144;2023-12-20T07:30:01;5.60;;;3.42;;
36651;SDS011;53334;51.976;20.144;2023-12-20T07:32:35;4.82;;;3.83;;
36651;SDS011;53334;51.976;20.144;2023-12-20T07:35:08;7.65;;;3.85;;
36651;SDS011;53334;51.976;20.144;2023-12-20T07:37:42;3.78;;;2.90;;
36651;SDS011;53334;51.976;20.144;2023-12-20T07:42:49;5.45;;;2.63;;
36651;SDS011;53334;51.976;20.144;2023-12-20T07:45:23;5.50;;;3.35;;
36651;SDS011;53334;51.976;20.144;2023-12-20T07:47:57;5.03;;;3.30;;
36651;SDS011;53334;51.976;20.144;2023-12-20T07:50:30;5.40;;;3.30;;
36651;SDS011;53334;51.976;20.144;2023-12-20T07:53:04;4.20;;;3.08;;
36651;SDS011;53334;51.976;20.144;2023-12-20T07:55:37;6.32;;;3.42;;
36651;SDS011;53334;51.976;20.144;2023-12-20T07:58:12;4.68;;;3.03;;
36651;SDS011;53334;51.976;20.144;2023-12-20T08:00:46;3.85;;;3.42;;
36651;SDS011;53334;51.976;20.144;2023-12-20T08:03:20;7.60;;;4.05;;
36651;SDS011;53334;51.976;20.144;2023-12-20T08:05:53;5.13;;;3.60;;
36651;SDS011;53334;51.976;20.144;2023-12-20T08:08:26;8.63;;;4.35;;
36651;SDS011;53334;51.976;20.144;2023-12-20T08:10:59;4.68;;;3.30;;
36651;SDS011;53334;51.976;20.144;2023-12-20T08:13:48;8.65;;;3.75;;
36651;SDS011;53334;51.976;20.144;2023-12-20T08:16:50;5.47;;;3.58;;
36651;SDS011;53334;51.976;20.144;2023-12-20T08:19:24;8.35;;;4.05;;
36651;SDS011;53334;51.976;20.144;2023-12-20T08:21:57;7.57;;;3.45;;
36651;SDS011;53334;51.976;20.144;2023-12-20T08:24:31;7.60;;;3.33;;
36651;SDS011;53334;51.976;20.144;2023-12-20T08:27:04;4.70;;;3.00;;
36651;SDS011;53334;51.976;20.144;2023-12-20T08:29:37;7.00;;;2.75;;
36651;SDS011;53334;51.976;20.144;2023-12-20T08:32:12;7.05;;;3.88;;
36651;SDS011;53334;51.976;20.144;2023-12-20T08:34:45;7.60;;;3.28;;
36651;SDS011;53334;51.976;20.144;2023-12-20T08:37:18;4.03;;;3.42;;
36651;SDS011;53334;51.976;20.144;2023-12-20T08:39:51;5.90;;;3.28;;
36651;SDS011;53334;51.976;20.144;2023-12-20T08:42:28;10.32;;;3.80;;
36651;SDS011;53334;51.976;20.144;2023-12-20T08:45:03;6.72;;;3.67;;
36651;SDS011;53334;51.976;20.144;2023-12-20T08:47:38;8.10;;;3.92;;
36651;SDS011;53334;51.976;20.144;2023-12-20T08:50:12;5.88;;;3.45;;
36651;SDS011;53334;51.976;20.144;2023-12-20T08:52:46;7.20;;;3.50;;
36651;SDS011;53334;51.976;20.144;2023-12-20T08:55:20;5.00;;;3.20;;
36651;SDS011;53334;51.976;20.144;2023-12-20T08:57:53;7.68;;;3.80;;
36651;SDS011;53334;51.976;20.144;2023-12-20T09:00:26;5.93;;;3.42;;
36651;SDS011;53334;51.976;20.144;2023-12-20T09:03:02;6.90;;;3.45;;
36651;SDS011;53334;51.976;20.144;2023-12-20T09:05:36;10.43;;;2.97;;
36651;SDS011;53334;51.976;20.144;2023-12-20T09:08:09;4.07;;;3.45;;
36651;SDS011;53334;51.976;20.144;2023-12-20T09:10:42;7.80;;;3.60;;
36651;SDS011;53334;51.976;20.144;2023-12-20T09:13:15;7.50;;;3.10;;
36651;SDS011;53334;51.976;20.144;2023-12-20T09:15:49;10.18;;;3.72;;
36651;SDS011;53334;51.976;20.144;2023-12-20T09:18:23;7.28;;;3.03;;
36651;SDS011;53334;51.976;20.144;2023-12-20T09:20:57;5.07;;;3.35;;
36651;SDS011;53334;51.976;20.144;2023-12-20T09:23:30;7.70;;;3.45;;
36651;SDS011;53334;51.976;20.144;2023-12-20T09:26:03;4.28;;;2.88;;
36651;SDS011;53334;51.976;20.144;2023-12-20T09:28:37;3.53;;;3.10;;
36651;SDS011;53334;51.976;20.144;2023-12-20T09:31:12;3.95;;;3.40;;
36651;SDS011;53334;51.976;20.144;2023-12-20T09:33:46;5.45;;;3.35;;
36651;SDS011;53334;51.976;20.144;2023-12-20T09:36:20;4.45;;;3.00;;
36651;SDS011;53334;51.976;20.144;2023-12-20T09:38:53;4.55;;;3.15;;
36651;SDS011;53334;51.976;20.144;2023-12-20T09:41:26;3.78;;;3.28;;
36651;SDS011;53334;51.976;20.144;2023-12-20T09:44:00;5.53;;;3.20;;
36651;SDS011;53334;51.976;20.144;2023-12-20T09:46:35;5.70;;;3.33;;
36651;SDS011;53334;51.976;20.144;2023-12-20T09:49:12;13.18;;;3.30;;
36651;SDS011;53334;51.976;20.144;2023-12-20T09:51:47;6.63;;;3.70;;
36651;SDS011;53334;51.976;20.144;2023-12-20T09:54:20;9.93;;;3.30;;
36651;SDS011;53334;51.976;20.144;2023-12-20T09:56:54;10.02;;;3.25;;
36651;SDS011;53334;51.976;20.144;2023-12-20T09:59:27;8.38;;;3.40;;
36651;SDS011;53334;51.976;20.144;2023-12-20T10:02:01;7.75;;;3.45;;
36651;SDS011;53334;51.976;20.144;2023-12-20T10:04:37;9.82;;;3.40;;
36651;SDS011;53334;51.976;20.144;2023-12-20T10:07:18;8.93;;;3.33;;
36651;SDS011;53334;51.976;20.144;2023-12-20T10:09:54;5.55;;;3.33;;
36651;SDS011;53334;51.976;20.144;2023-12-20T10:12:28;9.55;;;3.25;;
36651;SDS011;53334;51.976;20.144;2023-12-20T10:15:01;7.82;;;3.40;;
36651;SDS011;53334;51.976;20.144;2023-12-20T10:17:35;5.60;;;3.45;;
36651;SDS011;53334;51.976;20.144;2023-12-20T10:20:10;5.38;;;3.28;;
36651;SDS011;53334;51.976;20.144;2023-12-20T10:22:43;6.57;;;2.88;;
36651;SDS011;53334;51.976;20.144;2023-12-20T10:25:17;6.13;;;3.20;;
36651;SDS011;53334;51.976;20.144;2023-12-20T10:30:41;5.93;;;3.30;;
36651;SDS011;53334;51.976;20.144;2023-12-20T10:33:16;5.82;;;3.28;;
36651;SDS011;53334;51.976;20.144;2023-12-20T10:35:59;4.07;;;3.03;;
36651;SDS011;53334;51.976;20.144;2023-12-20T10:38:33;5.05;;;2.88;;
36651;SDS011;53334;51.976;20.144;2023-12-20T10:41:08;5.95;;;3.28;;
36651;SDS011;53334;51.976;20.144;2023-12-20T10:43:43;12.57;;;3.20;;
36651;SDS011;53334;51.976;20.144;2023-12-20T10:46:17;7.05;;;2.88;;
36651;SDS011;53334;51.976;20.144;2023-12-20T10:48:52;15.25;;;3.45;;
36651;SDS011;53334;51.976;20.144;2023-12-20T10:51:28;7.15;;;3.60;;
36651;SDS011;53334;51.976;20.144;2023-12-20T10:54:01;10.88;;;3.20;;
36651;SDS011;53334;51.976;20.144;2023-12-20T10:56:35;9.07;;;3.45;;
36651;SDS011;53334;51.976;20.144;2023-12-20T10:59:10;12.98;;;3.97;;
36651;SDS011;53334;51.976;20.144;2023-12-20T11:01:44;5.10;;;3.35;;
36651;SDS011;53334;51.976;20.144;2023-12-20T11:04:18;9.77;;;3.30;;
36651;SDS011;53334;51.976;20.144;2023-12-20T11:06:58;11.60;;;3.65;;
36651;SDS011;53334;51.976;20.144;2023-12-20T11:09:41;10.65;;;3.75;;
36651;SDS011;53334;51.976;20.144;2023-12-20T11:12:22;7.60;;;3.50;;
36651;SDS011;53334;51.976;20.144;2023-12-20T11:15:01;7.05;;;3.58;;
36651;SDS011;53334;51.976;20.144;2023-12-20T11:17:36;13.35;;;3.40;;
36651;SDS011;53334;51.976;20.144;2023-12-20T11:20:11;12.45;;;3.67;;
36651;SDS011;53334;51.976;20.144;2023-12-20T11:22:55;10.32;;;2.60;;
36651;SDS011;53334;51.976;20.144;2023-12-20T11:25:28;7.47;;;3.90;;
36651;SDS011;53334;51.976;20.144;2023-12-20T11:28:08;10.65;;;3.30;;
36651;SDS011;53334;51.976;20.144;2023-12-20T11:30:46;8.55;;;3.10;;
36651;SDS011;53334;51.976;20.144;2023-12-20T11:33:21;16.70;;;3.20;;
36651;SDS011;53334;51.976;20.144;2023-12-20T11:35:59;4.03;;;2.78;;
36651;SDS011;53334;51.976;20.144;2023-12-20T11:38:36;3.30;;;2.60;;
36651;SDS011;53334;51.976;20.144;2023-12-20T11:41:10;9.85;;;3.10;;
36651;SDS011;53334;51.976;20.144;2023-12-20T11:43:43;4.65;;;2.80;;
36651;SDS011;53334;51.976;20.144;2023-12-20T11:46:18;4.05;;;2.88;;
36651;SDS011;53334;51.976;20.144;2023-12-20T11:48:51;12.27;;;3.22;;
36651;SDS011;53334;51.976;20.144;2023-12-20T11:51:25;6.90;;;3.63;;
36651;SDS011;53334;51.976;20.144;2023-12-20T11:54:01;6.45;;;3.03;;
36651;SDS011;53334;51.976;20.144;2023-12-20T11:56:34;6.78;;;2.80;;
36651;SDS011;53334;51.976;20.144;2023-12-20T11:59:08;7.43;;;2.58;;
36651;SDS011;53334;51.976;20.144;2023-12-20T12:01:53;6.63;;;3.22;;
36651;SDS011;53334;51.976;20.144;2023-12-20T12:04:32;8.18;;;2.92;;
36651;SDS011;53334;51.976;20.144;2023-12-20T12:07:05;19.20;;;8.60;;
36651;SDS011;53334;51.976;20.144;2023-12-20T12:09:40;54.67;;;35.65;;
36651;SDS011;53334;51.976;20.144;2023-12-20T12:12:13;53.33;;;38.25;;
36651;SDS011;53334;51.976;20.144;2023-12-20T12:14:49;102.63;;;66.72;;
36651;SDS011;53334;51.976;20.144;2023-12-20T12:17:22;114.95;;;78.00;;
36651;SDS011;53334;51.976;20.144;2023-12-20T12:20:01;127.28;;;82.38;;
36651;SDS011;53334;51.976;20.144;2023-12-20T12:22:36;126.53;;;80.10;;
36651;SDS011;53334;51.976;20.144;2023-12-20T12:25:11;115.45;;;73.43;;
36651;SDS011;53334;51.976;20.144;2023-12-20T12:27:46;107.57;;;71.95;;
36651;SDS011;53334;51.976;20.144;2023-12-20T12:30:20;117.75;;;72.25;;
36651;SDS011;53334;51.976;20.144;2023-12-20T12:32:53;115.10;;;72.22;;
36651;SDS011;53334;51.976;20.144;2023-12-20T12:35:28;99.43;;;67.72;;
36651;SDS011;53334;51.976;20.144;2023-12-20T12:38:01;104.47;;;68.03;;
36651;SDS011;53334;51.976;20.144;2023-12-20T12:40:36;102.72;;;66.55;;
36651;SDS011;53334;51.976;20.144;2023-12-20T12:43:09;96.18;;;61.00;;
36651;SDS011;53334;51.976;20.144;2023-12-20T12:45:42;84.88;;;57.50;;
36651;SDS011;53334;51.976;20.144;2023-12-20T12:50:49;78.30;;;54.88;;
36651;SDS011;53334;51.976;20.144;2023-12-20T12:53:23;79.72;;;53.00;;
36651;SDS011;53334;51.976;20.144;2023-12-20T12:55:58;74.63;;;50.47;;
36651;SDS011;53334;51.976;20.144;2023-12-20T12:58:31;68.57;;;46.00;;
36651;SDS011;53334;51.976;20.144;2023-12-20T13:01:05;71.80;;;45.90;;
36651;SDS011;53334;51.976;20.144;2023-12-20T13:03:38;67.05;;;41.85;;
36651;SDS011;53334;51.976;20.144;2023-12-20T13:06:11;68.63;;;42.92;;
36651;SDS011;53334;51.976;20.144;2023-12-20T13:08:44;62.00;;;40.20;;
36651;SDS011;53334;51.976;20.144;2023-12-20T13:11:19;66.50;;;40.88;;
36651;SDS011;53334;51.976;20.144;2023-12-20T13:13:52;60.65;;;40.17;;
36651;SDS011;53334;51.976;20.144;2023-12-20T13:16:25;58.42;;;39.53;;
36651;SDS011;53334;51.976;20.144;2023-12-20T13:21:32;57.97;;;36.53;;
36651;SDS011;53334;51.976;20.144;2023-12-20T13:24:06;55.80;;;34.75;;
36651;SDS011;53334;51.976;20.144;2023-12-20T13:26:40;53.03;;;35.03;;
36651;SDS011;53334;51.976;20.144;2023-12-20T13:29:14;51.75;;;35.70;;
36651;SDS011;53334;51.976;20.144;2023-12-20T13:31:47;57.60;;;34.20;;
36651;SDS011;53334;51.976;20.144;2023-12-20T13:34:20;47.75;;;33.35;;
36651;SDS011;53334;51.976;20.144;2023-12-20T13:36:53;46.13;;;33.15;;
36651;SDS011;53334;51.976;20.144;2023-12-20T13:39:28;49.08;;;31.38;;
36651;SDS011;53334;51.976;20.144;2023-12-20T13:42:04;45.00;;;30.95;;
36651;SDS011;53334;51.976;20.144;2023-12-20T13:44:37;47.28;;;29.20;;
36651;SDS011;53334;51.976;20.144;2023-12-20T13:47:11;47.95;;;30.27;;
36651;SDS011;53334;51.976;20.144;2023-12-20T13:49:44;41.30;;;28.75;;
36651;SDS011;53334;51.976;20.144;2023-12-20T13:54:51;40.45;;;27.52;;
36651;SDS011;53334;51.976;20.144;2023-12-20T13:57:25;42.78;;;28.67;;
36651;SDS011;53334;51.976;20.144;2023-12-20T14:00:21;41.78;;;28.75;;
36651;SDS011;53334;51.976;20.144;2023-12-20T14:02:54;42.00;;;27.60;;
36651;SDS011;53334;51.976;20.144;2023-12-20T14:05:28;47.00;;;27.73;;
36651;SDS011;53334;51.976;20.144;2023-12-20T14:08:01;40.90;;;26.80;;
36651;SDS011;53334;51.976;20.144;2023-12-20T14:10:35;42.13;;;25.10;;
36651;SDS011;53334;51.976;20.144;2023-12-20T14:13:09;42.88;;;25.85;;
36651;SDS011;53334;51.976;20.144;2023-12-20T14:15:43;44.03;;;24.20;;
36651;SDS011;53334;51.976;20.144;2023-12-20T14:18:18;39.92;;;25.75;;
36651;SDS011;53334;51.976;20.144;2023-12-20T14:20:51;40.60;;;25.90;;
36651;SDS011;53334;51.976;20.144;2023-12-20T14:23:25;31.30;;;22.13;;
36651;SDS011;53334;51.976;20.144;2023-12-20T14:25:58;35.83;;;23.73;;
36651;SDS011;53334;51.976;20.144;2023-12-20T14:28:33;29.67;;;22.50;;
36651;SDS011;53334;51.976;20.144;2023-12-20T14:31:06;36.05;;;22.88;;
36651;SDS011;53334;51.976;20.144;2023-12-20T14:33:39;34.97;;;23.13;;
36651;SDS011;53334;51.976;20.144;2023-12-20T14:36:13;29.63;;;20.70;;
36651;SDS011;53334;51.976;20.144;2023-12-20T14:38:49;38.78;;;21.05;;
36651;SDS011;53334;51.976;20.144;2023-12-20T14:41:22;31.35;;;19.58;;
36651;SDS011;53334;51.976;20.144;2023-12-20T14:46:31;36.33;;;20.52;;
36651;SDS011;53334;51.976;20.144;2023-12-20T14:49:05;34.97;;;21.75;;
36651;SDS011;53334;51.976;20.144;2023-12-20T14:51:38;40.28;;;23.70;;
36651;SDS011;53334;51.976;20.144;2023-12-20T14:54:12;38.80;;;26.60;;
36651;SDS011;53334;51.976;20.144;2023-12-20T14:56:45;40.08;;;28.05;;
36651;SDS011;53334;51.976;20.144;2023-12-20T14:59:19;46.53;;;27.77;;
36651;SDS011;53334;51.976;20.144;2023-12-20T15:01:53;47.42;;;27.33;;
36651;SDS011;53334;51.976;20.144;2023-12-20T15:04:26;44.47;;;28.63;;
36651;SDS011;53334;51.976;20.144;2023-12-20T15:07:00;44.95;;;28.35;;
36651;SDS011;53334;51.976;20.144;2023-12-20T15:09:36;47.10;;;26.98;;
36651;SDS011;53334;51.976;20.144;2023-12-20T15:12:09;47.90;;;28.48;;
36651;SDS011;53334;51.976;20.144;2023-12-20T15:14:44;41.40;;;24.70;;
36651;SDS011;53334;51.976;20.144;2023-12-20T15:17:17;47.50;;;25.20;;
36651;SDS011;53334;51.976;20.144;2023-12-20T15:19:50;37.30;;;24.23;;
36651;SDS011;53334;51.976;20.144;2023-12-20T15:22:23;42.25;;;25.60;;
36651;SDS011;53334;51.976;20.144;2023-12-20T15:24:58;32.90;;;23.90;;
36651;SDS011;53334;51.976;20.144;2023-12-20T15:27:32;39.47;;;23.70;;
36651;SDS011;53334;51.976;20.144;2023-12-20T15:30:09;36.42;;;23.40;;